sensor_id;sensor_type;location;lat;lon;timestamp;pressure;altitude;pressure_sealevel;temperature;humidity
57192;BME280;43052;52.588;13.396;2023-04-07T00:00:52;101589.13;;;1.11;59.34
57192;BME280;43052;52.588;13.396;2023-04-07T00:03:17;101591.41;;;1.04;59.18
57192;BME280;43052;52.588;13.396;2023-04-07T00:05:42;101595.53;;;1.01;59.85
57192;BME280;43052;52.588;13.396;2023-04-07T00:08:08;101589.50;;;1.00;59.84
57192;BME280;43052;52.588;13.396;2023-04-07T00:10:33;101581.81;;;1.02;59.75
57192;BME280;43052;52.588;13.396;2023-04-07T00:12:59;101591.53;;;1.07;59.54
57192;BME280;43052;52.588;13.396;2023-04-07T00:15:24;101578.44;;;1.03;59.83
57192;BME280;43052;52.588;13.396;2023-04-07T00:17:50;101582.66;;;1.01;59.75
57192;BME280;43052;52.588;13.396;2023-04-07T00:20:15;101584.13;;;0.96;59.69
57192;BME280;43052;52.588;13.396;2023-04-07T00:22:41;101582.22;;;0.91;59.89
57192;BME280;43052;52.588;13.396;2023-04-07T00:25:07;101581.13;;;0.86;60.20
57192;BME280;43052;52.588;13.396;2023-04-07T00:27:32;101585.25;;;0.83;59.99
57192;BME280;43052;52.588;13.396;2023-04-07T00:29:57;101585.06;;;0.80;60.31
57192;BME280;43052;52.588;13.396;2023-04-07T00:32:23;101578.91;;;0.76;60.47
57192;BME280;43052;52.588;13.396;2023-04-07T00:34:48;101579.53;;;0.70;60.53
57192;BME280;43052;52.588;13.396;2023-04-07T00:37:13;101580.38;;;0.71;60.79
57192;BME280;43052;52.588;13.396;2023-04-07T00:39:38;101582.00;;;0.69;60.87
57192;BME280;43052;52.588;13.396;2023-04-07T00:42:04;101569.81;;;0.65;60.82
57192;BME280;43052;52.588;13.396;2023-04-07T00:44:31;101574.84;;;0.63;60.95
57192;BME280;43052;52.588;13.396;2023-04-07T00:46:57;101574.81;;;0.61;61.31
57192;BME280;43052;52.588;13.396;2023-04-07T00:49:22;101572.16;;;0.60;61.49
57192;BME280;43052;52.588;13.396;2023-04-07T00:51:48;101572.16;;;0.60;61.22
57192;BME280;43052;52.588;13.396;2023-04-07T00:54:13;101570.44;;;0.60;61.22
57192;BME280;43052;52.588;13.396;2023-04-07T00:56:39;101565.38;;;0.62;61.44
57192;BME280;43052;52.588;13.396;2023-04-07T00:59:04;101567.81;;;0.59;61.70
57192;BME280;43052;52.588;13.396;2023-04-07T01:01:34;101566.84;;;0.57;61.89
57192;BME280;43052;52.588;13.396;2023-04-07T01:04:07;101561.69;;;0.57;61.58
57192;BME280;43052;52.588;13.396;2023-04-07T01:06:36;101558.03;;;0.52;61.86
57192;BME280;43052;52.588;13.396;2023-04-07T01:09:06;101557.06;;;0.50;62.15
57192;BME280;43052;52.588;13.396;2023-04-07T01:11:36;101553.53;;;0.47;62.18
57192;BME280;43052;52.588;13.396;2023-04-07T01:14:05;101549.88;;;0.42;62.46
57192;BME280;43052;52.588;13.396;2023-04-07T01:16:41;101557.44;;;0.39;62.47
57192;BME280;43052;52.588;13.396;2023-04-07T01:19:32;101556.63;;;0.40;62.72
57192;BME280;43052;52.588;13.396;2023-04-07T01:21:59;101544.56;;;0.39;62.35
57192;BME280;43052;52.588;13.396;2023-04-07T01:25:01;101551.25;;;0.36;62.56
57192;BME280;43052;52.588;13.396;2023-04-07T01:27:35;101538.91;;;0.28;62.59
57192;BME280;43052;52.588;13.396;2023-04-07T01:30:02;101538.00;;;0.28;62.61
57192;BME280;43052;52.588;13.396;2023-04-07T01:32:29;101537.72;;;0.22;62.90
57192;BME280;43052;52.588;13.396;2023-04-07T01:34:56;101538.44;;;0.19;63.12
57192;BME280;43052;52.588;13.396;2023-04-07T01:37:24;101544.41;;;0.18;63.16
57192;BME280;43052;52.588;13.396;2023-04-07T01:39:51;101534.75;;;0.14;63.01
57192;BME280;43052;52.588;13.396;2023-04-07T01:42:17;101538.16;;;0.13;63.39
57192;BME280;43052;52.588;13.396;2023-04-07T01:44:43;101540.56;;;0.10;63.39
57192;BME280;43052;52.588;13.396;2023-04-07T01:47:10;101542.34;;;0.11;63.53
57192;BME280;43052;52.588;13.396;2023-04-07T01:49:36;101541.38;;;0.09;63.44
57192;BME280;43052;52.588;13.396;2023-04-07T01:52:03;101541.19;;;0.06;63.66
57192;BME280;43052;52.588;13.396;2023-04-07T01:54:29;101544.56;;;0.05;63.77
57192;BME280;43052;52.588;13.396;2023-04-07T01:56:55;101534.22;;;0.03;63.99
57192;BME280;43052;52.588;13.396;2023-04-07T01:59:20;101531.59;;;0.02;64.18
57192;BME280;43052;52.588;13.396;2023-04-07T02:01:46;101536.78;;;0.03;63.92
57192;BME280;43052;52.588;13.396;2023-04-07T02:04:43;101531.59;;;0.02;64.08
57192;BME280;43052;52.588;13.396;2023-04-07T02:07:08;101534.28;;;0.05;64.08
57192;BME280;43052;52.588;13.396;2023-04-07T02:09:37;101530.69;;;0.01;63.93
57192;BME280;43052;52.588;13.396;2023-04-07T02:12:07;101532.44;;;0.02;64.33
57192;BME280;43052;52.588;13.396;2023-04-07T02:14:34;101522.75;;;-0.04;64.33
57192;BME280;43052;52.588;13.396;2023-04-07T02:17:00;101529.75;;;-0.01;64.62
57192;BME280;43052;52.588;13.396;2023-04-07T02:19:28;101523.81;;;0.00;64.40
57192;BME280;43052;52.588;13.396;2023-04-07T02:21:55;101518.72;;;0.02;64.24
57192;BME280;43052;52.588;13.396;2023-04-07T02:24:21;101523.06;;;0.03;64.63
57192;BME280;43052;52.588;13.396;2023-04-07T02:26:46;101515.47;;;0.06;64.60
57192;BME280;43052;52.588;13.396;2023-04-07T02:29:12;101523.34;;;0.09;64.62
57192;BME280;43052;52.588;13.396;2023-04-07T02:31:37;101518.28;;;0.10;64.27
57192;BME280;43052;52.588;13.396;2023-04-07T02:34:02;101517.63;;;0.14;64.43
57192;BME280;43052;52.588;13.396;2023-04-07T02:36:27;101518.66;;;0.18;64.50
57192;BME280;43052;52.588;13.396;2023-04-07T02:38:53;101514.56;;;0.22;64.42
57192;BME280;43052;52.588;13.396;2023-04-07T02:41:18;101517.13;;;0.22;64.36
57192;BME280;43052;52.588;13.396;2023-04-07T02:43:43;101515.41;;;0.22;64.58
57192;BME280;43052;52.588;13.396;2023-04-07T02:46:09;101511.19;;;0.23;64.36
57192;BME280;43052;52.588;13.396;2023-04-07T02:48:34;101509.41;;;0.22;64.31
57192;BME280;43052;52.588;13.396;2023-04-07T02:50:59;101512.84;;;0.22;64.69
57192;BME280;43052;52.588;13.396;2023-04-07T02:53:24;101518.16;;;0.25;64.44
57192;BME280;43052;52.588;13.396;2023-04-07T02:55:50;101514.13;;;0.30;64.36
57192;BME280;43052;52.588;13.396;2023-04-07T02:58:15;101510.44;;;0.25;64.47
57192;BME280;43052;52.588;13.396;2023-04-07T03:00:40;101523.13;;;0.22;64.46
57192;BME280;43052;52.588;13.396;2023-04-07T03:03:05;101509.34;;;0.20;64.82
57192;BME280;43052;52.588;13.396;2023-04-07T03:05:31;101514.50;;;0.20;64.86
57192;BME280;43052;52.588;13.396;2023-04-07T03:07:56;101512.78;;;0.21;64.90
57192;BME280;43052;52.588;13.396;2023-04-07T03:10:21;101517.41;;;0.28;64.70
57192;BME280;43052;52.588;13.396;2023-04-07T03:12:46;101514.19;;;0.32;64.64
57192;BME280;43052;52.588;13.396;2023-04-07T03:15:12;101511.84;;;0.37;64.57
57192;BME280;43052;52.588;13.396;2023-04-07T03:17:37;101507.94;;;0.45;64.36
57192;BME280;43052;52.588;13.396;2023-04-07T03:20:02;101504.09;;;0.55;64.30
57192;BME280;43052;52.588;13.396;2023-04-07T03:22:28;101496.69;;;0.61;64.28
57192;BME280;43052;52.588;13.396;2023-04-07T03:24:53;101502.19;;;0.69;64.13
57192;BME280;43052;52.588;13.396;2023-04-07T03:27:18;101496.59;;;0.77;64.29
57192;BME280;43052;52.588;13.396;2023-04-07T03:29:44;101496.94;;;0.85;64.15
57192;BME280;43052;52.588;13.396;2023-04-07T03:32:09;101491.13;;;0.89;63.71
57192;BME280;43052;52.588;13.396;2023-04-07T03:34:34;101500.88;;;0.97;63.51
57192;BME280;43052;52.588;13.396;2023-04-07T03:37:00;101489.63;;;0.94;63.25
57192;BME280;43052;52.588;13.396;2023-04-07T03:39:25;101493.97;;;0.96;63.47
57192;BME280;43052;52.588;13.396;2023-04-07T03:41:50;101489.84;;;0.99;63.21
57192;BME280;43052;52.588;13.396;2023-04-07T03:44:16;101485.69;;;1.03;62.86
57192;BME280;43052;52.588;13.396;2023-04-07T03:46:41;101489.09;;;1.02;62.68
57192;BME280;43052;52.588;13.396;2023-04-07T03:49:06;101489.09;;;1.02;62.83
57192;BME280;43052;52.588;13.396;2023-04-07T03:51:32;101488.38;;;1.04;62.87
57192;BME280;43052;52.588;13.396;2023-04-07T03:53:58;101486.38;;;0.99;62.37
57192;BME280;43052;52.588;13.396;2023-04-07T03:56:23;101495.78;;;0.98;62.44
57192;BME280;43052;52.588;13.396;2023-04-07T03:58:48;101489.50;;;0.91;62.77
57192;BME280;43052;52.588;13.396;2023-04-07T04:01:14;101488.50;;;0.88;62.41
57192;BME280;43052;52.588;13.396;2023-04-07T04:03:40;101487.66;;;0.89;62.46
57192;BME280;43052;52.588;13.396;2023-04-07T04:06:05;101485.06;;;0.89;62.35
57192;BME280;43052;52.588;13.396;2023-04-07T04:08:31;101486.84;;;0.90;62.38
57192;BME280;43052;52.588;13.396;2023-04-07T04:10:56;101492.13;;;0.93;61.98
57192;BME280;43052;52.588;13.396;2023-04-07T04:13:21;101497.44;;;0.96;62.07
57192;BME280;43052;52.588;13.396;2023-04-07T04:15:46;101485.59;;;1.00;61.81
57192;BME280;43052;52.588;13.396;2023-04-07T04:18:11;101491.81;;;1.05;61.66
57192;BME280;43052;52.588;13.396;2023-04-07T04:20:37;101489.38;;;1.08;61.36
57192;BME280;43052;52.588;13.396;2023-04-07T04:23:02;101484.28;;;1.09;61.36
57192;BME280;43052;52.588;13.396;2023-04-07T04:25:28;101500.16;;;1.19;61.05
57192;BME280;43052;52.588;13.396;2023-04-07T04:27:53;101496.91;;;1.23;61.23
57192;BME280;43052;52.588;13.396;2023-04-07T04:30:18;101483.19;;;1.24;60.95
57192;BME280;43052;52.588;13.396;2023-04-07T04:32:44;101484.16;;;1.26;60.71
57192;BME280;43052;52.588;13.396;2023-04-07T04:35:09;101493.91;;;1.33;60.69
57192;BME280;43052;52.588;13.396;2023-04-07T04:37:34;101495.63;;;1.33;60.48
57192;BME280;43052;52.588;13.396;2023-04-07T04:39:59;101491.06;;;1.27;60.46
57192;BME280;43052;52.588;13.396;2023-04-07T04:42:25;101503.28;;;1.31;60.20
57192;BME280;43052;52.588;13.396;2023-04-07T04:44:51;101499.97;;;1.34;60.35
57192;BME280;43052;52.588;13.396;2023-04-07T04:47:17;101493.31;;;1.39;60.27
57192;BME280;43052;52.588;13.396;2023-04-07T04:49:42;101493.66;;;1.47;60.24
57192;BME280;43052;52.588;13.396;2023-04-07T04:52:08;101497.44;;;1.55;59.98
57192;BME280;43052;52.588;13.396;2023-04-07T04:54:33;101494.44;;;1.65;59.86
57192;BME280;43052;52.588;13.396;2023-04-07T04:56:58;101500.72;;;1.72;59.87
57192;BME280;43052;52.588;13.396;2023-04-07T04:59:23;101500.09;;;1.78;59.71
57192;BME280;43052;52.588;13.396;2023-04-07T05:01:50;101506.28;;;1.81;59.58
57192;BME280;43052;52.588;13.396;2023-04-07T05:04:16;101511.75;;;1.89;59.36
57192;BME280;43052;52.588;13.396;2023-04-07T05:06:41;101498.44;;;1.99;59.30
57192;BME280;43052;52.588;13.396;2023-04-07T05:09:06;101501.78;;;2.18;58.81
57192;BME280;43052;52.588;13.396;2023-04-07T05:11:32;101507.50;;;2.32;58.85
57192;BME280;43052;52.588;13.396;2023-04-07T05:13:57;101500.94;;;2.40;58.36
57192;BME280;43052;52.588;13.396;2023-04-07T05:16:22;101496.97;;;2.48;58.32
57192;BME280;43052;52.588;13.396;2023-04-07T05:18:47;101509.59;;;2.63;58.16
57192;BME280;43052;52.588;13.396;2023-04-07T05:21:13;101504.06;;;2.77;58.18
57192;BME280;43052;52.588;13.396;2023-04-07T05:23:38;101502.19;;;2.95;57.50
57192;BME280;43052;52.588;13.396;2023-04-07T05:26:03;101509.06;;;3.19;57.25
57192;BME280;43052;52.588;13.396;2023-04-07T05:28:28;101496.03;;;3.40;56.89
57192;BME280;43052;52.588;13.396;2023-04-07T05:30:54;101501.16;;;3.63;56.71
57192;BME280;43052;52.588;13.396;2023-04-07T05:33:19;101500.13;;;3.84;56.14
57192;BME280;43052;52.588;13.396;2023-04-07T05:35:45;101501.53;;;4.00;56.15
57192;BME280;43052;52.588;13.396;2023-04-07T05:38:10;101503.75;;;4.15;55.56
57192;BME280;43052;52.588;13.396;2023-04-07T05:40:36;101501.56;;;4.27;55.28
57192;BME280;43052;52.588;13.396;2023-04-07T05:43:01;101498.38;;;4.36;55.16
57192;BME280;43052;52.588;13.396;2023-04-07T05:45:26;101498.28;;;4.60;55.05
57192;BME280;43052;52.588;13.396;2023-04-07T05:47:51;101494.38;;;4.75;54.65
57192;BME280;43052;52.588;13.396;2023-04-07T05:50:17;101494.09;;;4.94;54.11
57192;BME280;43052;52.588;13.396;2023-04-07T05:52:42;101497.63;;;4.96;53.98
57192;BME280;43052;52.588;13.396;2023-04-07T05:55:08;101498.03;;;5.10;53.80
57192;BME280;43052;52.588;13.396;2023-04-07T05:57:33;101495.69;;;5.20;53.31
57192;BME280;43052;52.588;13.396;2023-04-07T05:59:59;101502.31;;;5.10;53.15
57192;BME280;43052;52.588;13.396;2023-04-07T06:02:24;101497.22;;;5.13;53.42
57192;BME280;43052;52.588;13.396;2023-04-07T06:04:49;101497.66;;;5.28;53.26
57192;BME280;43052;52.588;13.396;2023-04-07T06:07:15;101503.22;;;5.42;53.26
57192;BME280;43052;52.588;13.396;2023-04-07T06:09:40;101506.19;;;5.56;52.79
57192;BME280;43052;52.588;13.396;2023-04-07T06:12:06;101495.28;;;5.70;52.67
57192;BME280;43052;52.588;13.396;2023-04-07T06:14:32;101502.56;;;5.83;52.53
57192;BME280;43052;52.588;13.396;2023-04-07T06:16:57;101497.75;;;5.97;52.17
57192;BME280;43052;52.588;13.396;2023-04-07T06:19:22;101501.59;;;6.11;52.11
57192;BME280;43052;52.588;13.396;2023-04-07T06:21:47;101508.78;;;6.23;51.71
57192;BME280;43052;52.588;13.396;2023-04-07T06:24:13;101498.50;;;6.28;51.31
57192;BME280;43052;52.588;13.396;2023-04-07T06:26:39;101510.78;;;6.34;51.31
57192;BME280;43052;52.588;13.396;2023-04-07T06:29:04;101503.94;;;6.37;51.19
57192;BME280;43052;52.588;13.396;2023-04-07T06:31:30;101509.25;;;6.43;51.43
57192;BME280;43052;52.588;13.396;2023-04-07T06:33:55;101518.03;;;6.47;51.36
57192;BME280;43052;52.588;13.396;2023-04-07T06:36:20;101517.44;;;6.59;51.00
57192;BME280;43052;52.588;13.396;2023-04-07T06:38:45;101519.31;;;6.65;50.73
57192;BME280;43052;52.588;13.396;2023-04-07T06:41:11;101523.09;;;6.81;50.49
57192;BME280;43052;52.588;13.396;2023-04-07T06:43:41;101520.09;;;7.02;50.21
57192;BME280;43052;52.588;13.396;2023-04-07T06:46:06;101520.53;;;7.22;49.76
57192;BME280;43052;52.588;13.396;2023-04-07T06:48:31;101518.22;;;7.36;49.85
57192;BME280;43052;52.588;13.396;2023-04-07T06:50:56;101515.63;;;7.37;49.58
57192;BME280;43052;52.588;13.396;2023-04-07T06:53:22;101513.84;;;7.35;49.67
57192;BME280;43052;52.588;13.396;2023-04-07T06:55:47;101522.34;;;7.28;49.15
57192;BME280;43052;52.588;13.396;2023-04-07T06:58:12;101519.31;;;7.06;49.64
57192;BME280;43052;52.588;13.396;2023-04-07T07:00:37;101521.81;;;7.00;49.64
57192;BME280;43052;52.588;13.396;2023-04-07T07:03:03;101517.16;;;6.86;49.43
57192;BME280;43052;52.588;13.396;2023-04-07T07:05:28;101526.09;;;6.98;49.62
57192;BME280;43052;52.588;13.396;2023-04-07T07:07:53;101518.31;;;7.01;49.39
57192;BME280;43052;52.588;13.396;2023-04-07T07:10:18;101522.84;;;7.08;49.13
57192;BME280;43052;52.588;13.396;2023-04-07T07:12:47;101514.50;;;7.25;48.87
57192;BME280;43052;52.588;13.396;2023-04-07T07:15:13;101524.53;;;7.50;48.54
57192;BME280;43052;52.588;13.396;2023-04-07T07:17:38;101524.22;;;7.79;48.39
57192;BME280;43052;52.588;13.396;2023-04-07T07:20:03;101507.16;;;7.97;48.14
57192;BME280;43052;52.588;13.396;2023-04-07T07:22:29;101513.41;;;8.07;47.77
57192;BME280;43052;52.588;13.396;2023-04-07T07:24:54;101505.81;;;8.19;47.30
57192;BME280;43052;52.588;13.396;2023-04-07T07:27:20;101529.53;;;8.38;46.61
57192;BME280;43052;52.588;13.396;2023-04-07T07:29:45;101522.53;;;8.35;46.24
57192;BME280;43052;52.588;13.396;2023-04-07T07:32:10;101518.31;;;8.43;45.71
57192;BME280;43052;52.588;13.396;2023-04-07T07:34:36;101518.63;;;8.62;45.29
57192;BME280;43052;52.588;13.396;2023-04-07T07:37:01;101523.31;;;8.86;44.46
57192;BME280;43052;52.588;13.396;2023-04-07T07:39:26;101529.69;;;9.07;43.16
57192;BME280;43052;52.588;13.396;2023-04-07T07:41:52;101528.78;;;9.05;43.10
57192;BME280;43052;52.588;13.396;2023-04-07T07:44:17;101526.44;;;9.25;42.71
57192;BME280;43052;52.588;13.396;2023-04-07T07:46:44;101525.84;;;9.51;41.46
57192;BME280;43052;52.588;13.396;2023-04-07T07:49:09;101522.13;;;9.29;40.04
57192;BME280;43052;52.588;13.396;2023-04-07T07:51:35;101529.13;;;9.33;39.74
57192;BME280;43052;52.588;13.396;2023-04-07T07:54:00;101532.38;;;9.15;39.17
57192;BME280;43052;52.588;13.396;2023-04-07T07:56:25;101533.88;;;8.96;38.62
57192;BME280;43052;52.588;13.396;2023-04-07T07:58:51;101529.25;;;8.74;37.19
57192;BME280;43052;52.588;13.396;2023-04-07T08:01:16;101527.44;;;8.69;37.54
57192;BME280;43052;52.588;13.396;2023-04-07T08:03:42;101529.09;;;8.64;37.59
57192;BME280;43052;52.588;13.396;2023-04-07T08:06:10;101536.94;;;8.67;37.34
57192;BME280;43052;52.588;13.396;2023-04-07T08:08:36;101537.28;;;8.91;37.47
57192;BME280;43052;52.588;13.396;2023-04-07T08:11:01;101537.72;;;9.24;36.97
57192;BME280;43052;52.588;13.396;2023-04-07T08:13:27;101533.69;;;9.49;36.47
57192;BME280;43052;52.588;13.396;2023-04-07T08:15:52;101539.91;;;9.62;35.34
57192;BME280;43052;52.588;13.396;2023-04-07T08:18:17;101545.72;;;9.36;36.01
57192;BME280;43052;52.588;13.396;2023-04-07T08:20:42;101549.69;;;9.06;35.66
57192;BME280;43052;52.588;13.396;2023-04-07T08:23:08;101544.13;;;8.82;36.29
57192;BME280;43052;52.588;13.396;2023-04-07T08:25:33;101545.75;;;8.72;36.02
57192;BME280;43052;52.588;13.396;2023-04-07T08:27:58;101550.69;;;8.56;36.38
57192;BME280;43052;52.588;13.396;2023-04-07T08:30:24;101549.59;;;8.42;36.58
57192;BME280;43052;52.588;13.396;2023-04-07T08:32:49;101545.16;;;8.36;37.35
57192;BME280;43052;52.588;13.396;2023-04-07T08:35:14;101552.06;;;8.34;37.08
57192;BME280;43052;52.588;13.396;2023-04-07T08:37:40;101549.59;;;8.43;37.81
57192;BME280;43052;52.588;13.396;2023-04-07T08:40:06;101543.91;;;8.66;37.54
57192;BME280;43052;52.588;13.396;2023-04-07T08:42:33;101542.44;;;8.84;37.89
57192;BME280;43052;52.588;13.396;2023-04-07T08:45:06;101540.09;;;9.05;37.71
57192;BME280;43052;52.588;13.396;2023-04-07T08:47:32;101547.41;;;9.34;38.08
57192;BME280;43052;52.588;13.396;2023-04-07T08:50:01;101550.34;;;9.61;37.62
57192;BME280;43052;52.588;13.396;2023-04-07T08:52:45;101552.03;;;9.57;37.46
57192;BME280;43052;52.588;13.396;2023-04-07T08:55:12;101545.94;;;9.55;37.44
57192;BME280;43052;52.588;13.396;2023-04-07T08:57:38;101553.06;;;9.73;37.22
57192;BME280;43052;52.588;13.396;2023-04-07T09:00:05;101550.66;;;9.90;36.88
57192;BME280;43052;52.588;13.396;2023-04-07T09:02:36;101562.09;;;10.03;36.86
57192;BME280;43052;52.588;13.396;2023-04-07T09:05:03;101554.16;;;9.97;36.51
57192;BME280;43052;52.588;13.396;2023-04-07T09:07:31;101560.91;;;9.71;36.75
57192;BME280;43052;52.588;13.396;2023-04-07T09:09:57;101570.25;;;9.52;36.84
57192;BME280;43052;52.588;13.396;2023-04-07T09:12:22;101567.38;;;9.29;36.92
57192;BME280;43052;52.588;13.396;2023-04-07T09:14:47;101562.00;;;9.18;37.09
57192;BME280;43052;52.588;13.396;2023-04-07T09:17:13;101564.34;;;8.98;37.14
57192;BME280;43052;52.588;13.396;2023-04-07T09:19:38;101564.09;;;8.80;37.04
57192;BME280;43052;52.588;13.396;2023-04-07T09:22:04;101559.50;;;8.63;37.58
57192;BME280;43052;52.588;13.396;2023-04-07T09:24:29;101563.72;;;8.55;37.70
57192;BME280;43052;52.588;13.396;2023-04-07T09:27:12;101562.78;;;8.50;37.45
57192;BME280;43052;52.588;13.396;2023-04-07T09:29:38;101566.34;;;8.04;37.58
57192;BME280;43052;52.588;13.396;2023-04-07T09:32:04;101556.31;;;7.78;37.74
57192;BME280;43052;52.588;13.396;2023-04-07T09:34:35;101580.19;;;8.03;38.25
57192;BME280;43052;52.588;13.396;2023-04-07T09:37:00;101574.50;;;8.26;38.09
57192;BME280;43052;52.588;13.396;2023-04-07T09:39:26;101576.47;;;8.39;37.77
57192;BME280;43052;52.588;13.396;2023-04-07T09:41:52;101573.16;;;8.48;37.75
57192;BME280;43052;52.588;13.396;2023-04-07T09:44:18;101575.88;;;8.54;37.13
57192;BME280;43052;52.588;13.396;2023-04-07T09:46:56;101581.06;;;8.53;37.14
57192;BME280;43052;52.588;13.396;2023-04-07T09:49:24;101570.69;;;8.54;37.65
57192;BME280;43052;52.588;13.396;2023-04-07T09:51:57;101575.06;;;8.57;37.50
57192;BME280;43052;52.588;13.396;2023-04-07T09:54:35;101572.41;;;8.55;37.65
57192;BME280;43052;52.588;13.396;2023-04-07T09:57:01;101572.31;;;8.49;37.78
57192;BME280;43052;52.588;13.396;2023-04-07T09:59:28;101569.53;;;8.40;37.79
57192;BME280;43052;52.588;13.396;2023-04-07T10:01:54;101571.19;;;8.35;37.97
57192;BME280;43052;52.588;13.396;2023-04-07T10:04:20;101572.03;;;8.32;38.07
57192;BME280;43052;52.588;13.396;2023-04-07T10:06:46;101570.22;;;8.29;38.45
57192;BME280;43052;52.588;13.396;2023-04-07T10:09:13;101572.59;;;8.15;38.51
57192;BME280;43052;52.588;13.396;2023-04-07T10:11:42;101577.00;;;8.20;38.72
57192;BME280;43052;52.588;13.396;2023-04-07T10:14:09;101579.72;;;8.26;38.95
57192;BME280;43052;52.588;13.396;2023-04-07T10:16:35;101575.19;;;8.14;38.92
57192;BME280;43052;52.588;13.396;2023-04-07T10:19:01;101582.13;;;8.13;39.10
57192;BME280;43052;52.588;13.396;2023-04-07T10:21:27;101576.03;;;8.13;39.32
57192;BME280;43052;52.588;13.396;2023-04-07T10:23:58;101579.31;;;8.03;39.86
57192;BME280;43052;52.588;13.396;2023-04-07T10:26:30;101587.13;;;8.03;39.96
57192;BME280;43052;52.588;13.396;2023-04-07T10:29:03;101579.34;;;8.04;40.68
57192;BME280;43052;52.588;13.396;2023-04-07T10:31:31;101579.47;;;8.12;40.78
57192;BME280;43052;52.588;13.396;2023-04-07T10:33:57;101590.78;;;8.12;41.07
57192;BME280;43052;52.588;13.396;2023-04-07T10:36:23;101587.16;;;8.04;41.37
57192;BME280;43052;52.588;13.396;2023-04-07T10:41:38;101593.41;;;8.14;42.28
57192;BME280;43052;52.588;13.396;2023-04-07T10:44:43;101585.84;;;8.28;42.90
57192;BME280;43052;52.588;13.396;2023-04-07T10:47:08;101580.53;;;8.22;43.58
57192;BME280;43052;52.588;13.396;2023-04-07T10:49:34;101575.50;;;8.34;44.52
57192;BME280;43052;52.588;13.396;2023-04-07T10:54:38;101578.66;;;8.64;45.67
57192;BME280;43052;52.588;13.396;2023-04-07T10:57:10;101571.75;;;8.69;45.92
57192;BME280;43052;52.588;13.396;2023-04-07T10:59:39;101572.47;;;8.60;46.62
57192;BME280;43052;52.588;13.396;2023-04-07T11:04:37;101565.69;;;8.70;47.54
57192;BME280;43052;52.588;13.396;2023-04-07T11:07:02;101575.69;;;9.02;47.93
57192;BME280;43052;52.588;13.396;2023-04-07T11:09:27;101567.41;;;9.32;48.27
57192;BME280;43052;52.588;13.396;2023-04-07T11:11:53;101566.09;;;9.70;48.19
57192;BME280;43052;52.588;13.396;2023-04-07T11:14:28;101575.81;;;9.82;48.27
57192;BME280;43052;52.588;13.396;2023-04-07T11:16:54;101571.19;;;9.57;48.78
57192;BME280;43052;52.588;13.396;2023-04-07T11:19:19;101567.41;;;9.31;49.58
57192;BME280;43052;52.588;13.396;2023-04-07T11:21:45;101568.00;;;9.11;50.51
57192;BME280;43052;52.588;13.396;2023-04-07T11:24:31;101574.66;;;8.89;51.39
57192;BME280;43052;52.588;13.396;2023-04-07T11:26:56;101568.75;;;8.45;52.56
57192;BME280;43052;52.588;13.396;2023-04-07T11:29:31;101569.25;;;8.23;53.99
57192;BME280;43052;52.588;13.396;2023-04-07T11:31:58;101568.19;;;8.11;54.32
57192;BME280;43052;52.588;13.396;2023-04-07T11:34:34;101566.59;;;8.21;54.82
57192;BME280;43052;52.588;13.396;2023-04-07T11:37:23;101571.91;;;8.26;55.33
57192;BME280;43052;52.588;13.396;2023-04-07T11:39:53;101574.44;;;8.21;55.41
57192;BME280;43052;52.588;13.396;2023-04-07T11:42:35;101574.16;;;8.06;55.92
57192;BME280;43052;52.588;13.396;2023-04-07T11:45:00;101568.88;;;8.03;56.14
57192;BME280;43052;52.588;13.396;2023-04-07T11:47:33;101572.22;;;7.94;56.58
57192;BME280;43052;52.588;13.396;2023-04-07T11:49:59;101565.06;;;7.82;56.63
57192;BME280;43052;52.588;13.396;2023-04-07T11:52:24;101570.19;;;7.77;57.20
57192;BME280;43052;52.588;13.396;2023-04-07T11:54:50;101571.31;;;7.92;57.55
57192;BME280;43052;52.588;13.396;2023-04-07T11:57:28;101562.03;;;8.06;57.61
57192;BME280;43052;52.588;13.396;2023-04-07T12:00:06;101566.34;;;8.04;57.64
57192;BME280;43052;52.588;13.396;2023-04-07T12:02:33;101565.47;;;8.05;58.10
57192;BME280;43052;52.588;13.396;2023-04-07T12:04:59;101571.63;;;8.10;58.19
57192;BME280;43052;52.588;13.396;2023-04-07T12:07:24;101566.44;;;8.10;58.17
57192;BME280;43052;52.588;13.396;2023-04-07T12:09:52;101561.06;;;8.01;57.90
57192;BME280;43052;52.588;13.396;2023-04-07T12:12:27;101573.31;;;8.05;58.41
57192;BME280;43052;52.588;13.396;2023-04-07T12:14:53;101572.13;;;7.88;58.24
57192;BME280;43052;52.588;13.396;2023-04-07T12:17:22;101567.69;;;7.85;58.63
57192;BME280;43052;52.588;13.396;2023-04-07T12:19:48;101572.03;;;7.83;59.01
57192;BME280;43052;52.588;13.396;2023-04-07T12:22:13;101559.56;;;7.66;59.14
57192;BME280;43052;52.588;13.396;2023-04-07T12:24:38;101562.03;;;7.60;59.40
57192;BME280;43052;52.588;13.396;2023-04-07T12:27:04;101568.88;;;7.53;60.17
57192;BME280;43052;52.588;13.396;2023-04-07T12:29:29;101563.50;;;7.47;60.46
57192;BME280;43052;52.588;13.396;2023-04-07T12:31:55;101563.31;;;7.36;60.43
57192;BME280;43052;52.588;13.396;2023-04-07T12:34:20;101563.03;;;7.22;60.72
57192;BME280;43052;52.588;13.396;2023-04-07T12:36:45;101557.81;;;7.22;60.91
57192;BME280;43052;52.588;13.396;2023-04-07T12:39:11;101559.78;;;7.34;61.09
57192;BME280;43052;52.588;13.396;2023-04-07T12:41:36;101570.66;;;7.58;61.12
57192;BME280;43052;52.588;13.396;2023-04-07T12:44:02;101567.41;;;7.69;60.72
57192;BME280;43052;52.588;13.396;2023-04-07T12:46:28;101559.53;;;7.65;60.74
57192;BME280;43052;52.588;13.396;2023-04-07T12:48:53;101567.25;;;7.60;60.97
57192;BME280;43052;52.588;13.396;2023-04-07T12:51:18;101563.03;;;7.67;60.92
57192;BME280;43052;52.588;13.396;2023-04-07T12:53:44;101569.91;;;7.63;60.83
57192;BME280;43052;52.588;13.396;2023-04-07T12:56:09;101561.28;;;7.67;60.82